Details for UPS at VHHH




Go Back


Latest METAR
Local Time

VHHH 221130Z 15009KT 120V190 9999 FEW018 29/24 Q1013 NOSIG
22/09/2018, 19:38:49

Description
Results
UPS Logo
Number of Pilots based at VHHH
0 Pilots Based here
Number of UPS Flights Departed from VHHH
0 Flights Departed
Number of UPS Flights Arrived at VHHH
0 Flights Arrived
Number of UPS Schedules Departing from VHHH
32 Schedules
Number of UPS Schedules Arriving at VHHH
34 Schedules
Number of UPS Schedules Departing from VHHH availible today
1 Schedules Today
Number of UPS Schedules Arriving at VHHH availible today
2 Schedules Today
Average Landing Rate at VHHH
-244 fpm
UPS Average Landing Rate at VHHH
0 fpm
Total Fuel Purchased at VHHH by UPS
0.00 kgs / 0.00 lbs

Pilots Based at VHHH


Pilot ID
Pilot Name
Pilot Rank
No. of Flights
No. of Flying Hours
There are no pilots assigned to this hub!   Will you be the first?
Content